Time;durP1;ratioP1;P1;durP2;ratioP2;P2;SDS_P1;SDS_P2;PMS_P1;PMS_P2;Temp;Humidity;BMP_temperature;BMP_pressure;BME280_temperature;BME280_humidity;BME280_pressure;Samples;Min_cycle;Max_cycle;Signal;HPM_P1;HPM_P2
2024/01/06 00:01:41;;;;;;;1999.90;999.90;;;5.70;99.90;;;;;;5037035;28;20025;-77
2024/01/06 00:04:06;;;;;;;1999.90;999.90;;;5.70;99.90;;;;;;5056049;28;20029;-77
2024/01/06 00:06:32;;;;;;;1999.90;999.90;;;5.70;99.90;;;;;;5055839;28;20484;-77
2024/01/06 00:08:58;;;;;;;1999.90;999.90;;;5.70;99.90;;;;;;5055953;28;20395;-76
2024/01/06 00:11:23;;;;;;;1999.90;999.90;;;5.70;99.90;;;;;;5055881;28;20033;-77
2024/01/06 00:13:49;;;;;;;1999.90;999.90;;;5.70;99.90;;;;;;5056002;28;20025;-76
2024/01/06 00:16:19;;;;;;;1999.90;999.90;;;5.70;99.90;;;;;;5037672;28;20045;-77
2024/01/06 00:18:45;;;;;;;1999.90;999.90;;;5.70;99.90;;;;;;5055945;28;20033;-77
2024/01/06 00:21:11;;;;;;;1999.90;999.90;;;5.70;99.90;;;;;;5055679;28;20021;-77
2024/01/06 00:23:37;;;;;;;1999.90;999.90;;;5.70;99.90;;;;;;5055652;28;20048;-77
2024/01/06 00:26:03;;;;;;;1999.90;999.90;;;5.60;99.90;;;;;;5055784;28;20021;-76
2024/01/06 00:28:29;;;;;;;1999.90;999.90;;;5.70;99.90;;;;;;5057714;28;20075;-76
2024/01/06 00:30:55;;;;;;;1999.90;999.90;;;5.70;99.90;;;;;;5044488;28;20566;-77
2024/01/06 00:33:21;;;;;;;1999.90;999.90;;;5.70;99.90;;;;;;5054111;28;20048;-77
2024/01/06 00:35:46;;;;;;;1999.90;999.90;;;5.70;99.90;;;;;;5054506;28;20028;-77
2024/01/06 00:38:12;;;;;;;1999.90;999.90;;;5.70;99.90;;;;;;5055272;28;20037;-77
2024/01/06 00:40:38;;;;;;;1999.90;999.90;;;5.60;99.90;;;;;;5055219;28;20415;-77
2024/01/06 00:43:04;;;;;;;1999.90;999.90;;;5.60;99.90;;;;;;5055586;28;20033;-77
2024/01/06 00:45:30;;;;;;;1999.90;999.90;;;5.50;99.90;;;;;;5055234;28;20025;-77
2024/01/06 00:47:56;;;;;;;1999.90;999.90;;;5.50;99.90;;;;;;5053181;28;20056;-77
2024/01/06 00:50:22;;;;;;;1999.90;999.90;;;5.50;99.90;;;;;;5054863;28;20369;-77
2024/01/06 00:52:48;;;;;;;1999.90;999.90;;;5.50;99.90;;;;;;5055210;28;20040;-76
2024/01/06 00:55:13;;;;;;;1999.90;999.90;;;5.40;99.90;;;;;;5055314;28;20032;-77
2024/01/06 00:57:39;;;;;;;1999.90;999.90;;;5.40;99.90;;;;;;5055262;28;20033;-77
2024/01/06 01:00:05;;;;;;;1999.90;999.90;;;5.40;99.90;;;;;;5055059;28;20052;-76
2024/01/06 01:02:31;;;;;;;1999.90;999.90;;;5.40;99.90;;;;;;5055364;28;20499;-77
2024/01/06 01:04:57;;;;;;;1999.90;999.90;;;5.40;99.90;;;;;;5037146;28;20026;-77
2024/01/06 01:07:24;;;;;;;1999.90;999.90;;;5.40;99.90;;;;;;5054230;28;20025;-76
2024/01/06 01:09:50;;;;;;;1999.90;999.90;;;5.40;99.90;;;;;;5054526;28;20383;-76
2024/01/06 01:12:15;;;;;;;1999.90;999.90;;;5.40;99.90;;;;;;5054190;28;20037;-77
2024/01/06 01:14:41;;;;;;;1999.90;999.90;;;5.30;99.90;;;;;;5054838;28;20049;-76
2024/01/06 01:17:07;;;;;;;1999.90;999.90;;;5.40;99.90;;;;;;5054938;28;20072;-77
2024/01/06 01:19:32;;;;;;;1999.90;999.90;;;5.30;99.90;;;;;;5054831;28;20024;-77
2024/01/06 01:21:58;;;;;;;1999.90;999.90;;;5.30;99.90;;;;;;5054515;28;20024;-77
2024/01/06 01:24:23;;;;;;;1999.90;999.90;;;5.30;99.90;;;;;;5054947;28;20033;-77
2024/01/06 01:26:50;;;;;;;1999.90;999.90;;;5.30;99.90;;;;;;5036875;28;20105;-76
2024/01/06 01:29:17;;;;;;;1999.90;999.90;;;5.30;99.90;;;;;;5049910;28;20029;-77
2024/01/06 01:31:42;;;;;;;1999.90;999.90;;;5.20;99.90;;;;;;5048879;28;20070;-77
2024/01/06 01:34:08;;;;;;;1999.90;999.90;;;5.20;99.90;;;;;;5070533;28;20028;-77
2024/01/06 01:36:33;;;;;;;1999.90;999.90;;;5.20;99.90;;;;;;5051719;28;20499;-76
2024/01/06 01:38:59;;;;;;;1999.90;999.90;;;5.20;99.90;;;;;;5036436;28;20025;-77
2024/01/06 01:41:25;;;;;;;1999.90;999.90;;;5.10;99.90;;;;;;5054066;28;20064;-76
2024/01/06 01:43:57;;;;;;;1999.90;999.90;;;5.00;99.90;;;;;;5054655;28;20033;-77
2024/01/06 01:46:27;;;;;;;1999.90;999.90;;;5.00;99.90;;;;;;5054493;28;20024;-77
2024/01/06 01:48:58;;;;;;;1999.90;999.90;;;4.90;99.90;;;;;;5054050;28;20044;-76
2024/01/06 01:51:32;;;;;;;1999.90;999.90;;;4.90;99.90;;;;;;5054431;28;20427;-77
2024/01/06 01:53:59;;;;;;;1999.90;999.90;;;4.90;99.90;;;;;;5054233;28;20029;-77
2024/01/06 01:56:26;;;;;;;1999.90;999.90;;;4.90;99.90;;;;;;5054311;28;20095;-76
2024/01/06 01:58:52;;;;;;;1999.90;999.90;;;4.90;99.90;;;;;;5054330;28;20029;-77
2024/01/06 02:01:18;;;;;;;1999.90;999.90;;;4.90;99.90;;;;;;5053987;28;20021;-76
2024/01/06 02:03:44;;;;;;;1999.90;999.90;;;4.90;99.90;;;;;;5054126;28;20029;-76
2024/01/06 02:06:10;;;;;;;1999.90;999.90;;;4.80;99.90;;;;;;5054044;28;20048;-76
2024/01/06 02:08:36;;;;;;;1999.90;999.90;;;4.80;99.90;;;;;;5054073;28;20496;-77
2024/01/06 02:11:03;;;;;;;1999.90;999.90;;;4.80;99.90;;;;;;5053581;28;20028;-77
2024/01/06 02:13:35;;;;;;;1999.90;999.90;;;4.80;99.90;;;;;;5053673;28;20112;-77
2024/01/06 02:16:02;;;;;;;1999.90;999.90;;;4.70;99.90;;;;;;5053613;28;20049;-76
2024/01/06 02:18:28;;;;;;;1999.90;999.90;;;4.70;99.90;;;;;;5053782;28;20049;-76
2024/01/06 02:21:01;;;;;;;1999.90;999.90;;;4.70;99.90;;;;;;5053928;28;20409;-77
2024/01/06 02:23:27;;;;;;;1999.90;999.90;;;4.70;99.90;;;;;;5053517;28;20032;-76
2024/01/06 02:25:53;;;;;;;1999.90;999.90;;;4.60;99.90;;;;;;5053371;28;20028;-77
2024/01/06 02:28:19;;;;;;;1999.90;999.90;;;4.60;99.90;;;;;;5049409;28;20389;-76
2024/01/06 02:30:44;;;;;;;1999.90;999.90;;;4.60;99.90;;;;;;5043056;28;20392;-77
2024/01/06 02:33:10;;;;;;;1999.90;999.90;;;4.60;99.90;;;;;;5050599;28;20035;-77
2024/01/06 02:35:36;;;;;;;1999.90;999.90;;;4.60;99.90;;;;;;5053292;28;20446;-76
2024/01/06 02:38:01;;;;;;;1999.90;999.90;;;4.60;99.90;;;;;;5052971;28;20075;-76
2024/01/06 02:40:27;;;;;;;1999.90;999.90;;;4.60;99.90;;;;;;5034929;28;20032;-76
2024/01/06 02:42:53;;;;;;;1999.90;999.90;;;4.50;99.90;;;;;;5053281;28;20508;-76
2024/01/06 02:45:18;;;;;;;1999.90;999.90;;;4.60;99.90;;;;;;5053444;28;20499;-76
2024/01/06 02:47:44;;;;;;;1999.90;999.90;;;4.50;99.90;;;;;;5047957;28;20029;-76
2024/01/06 02:50:10;;;;;;;1999.90;999.90;;;4.60;99.90;;;;;;5053266;28;20028;-76
2024/01/06 02:52:35;;;;;;;1999.90;999.90;;;4.50;99.90;;;;;;5052914;28;20166;-76
2024/01/06 02:55:01;;;;;;;1999.90;999.90;;;4.60;99.90;;;;;;5053114;28;20109;-76
2024/01/06 02:57:30;;;;;;;1999.90;999.90;;;4.60;99.90;;;;;;5052888;28;20043;-76
2024/01/06 02:59:56;;;;;;;1999.90;999.90;;;4.60;99.90;;;;;;5052674;28;20104;-76
2024/01/06 03:02:21;;;;;;;1999.90;999.90;;;4.60;99.90;;;;;;5052789;28;20116;-76
2024/01/06 03:04:47;;;;;;;1999.90;999.90;;;4.60;99.90;;;;;;5068337;28;20024;-76
2024/01/06 03:07:13;;;;;;;1999.90;999.90;;;4.60;99.90;;;;;;5053814;28;20029;-77
2024/01/06 03:09:38;;;;;;;1999.90;999.90;;;4.70;99.90;;;;;;5052492;28;20029;-76
2024/01/06 03:12:06;;;;;;;1999.90;999.90;;;4.70;99.90;;;;;;5052450;28;20068;-76
2024/01/06 03:14:31;;;;;;;1999.90;999.90;;;4.70;99.90;;;;;;5053010;28;20029;-76
2024/01/06 03:16:58;;;;;;;1999.90;999.90;;;4.80;99.90;;;;;;5052566;28;20126;-76
2024/01/06 03:19:27;;;;;;;1999.90;999.90;;;4.80;99.90;;;;;;5052598;28;20116;-77
2024/01/06 03:21:53;;;;;;;1999.90;999.90;;;4.80;99.90;;;;;;5052574;28;20033;-77
2024/01/06 03:24:18;;;;;;;1999.90;999.90;;;4.90;99.90;;;;;;5052591;28;20480;-77
2024/01/06 03:26:44;;;;;;;1999.90;999.90;;;4.90;99.90;;;;;;5052695;28;20052;-77
2024/01/06 03:29:10;;;;;;;1999.90;999.90;;;4.90;99.90;;;;;;5046872;28;20029;-77
2024/01/06 03:31:35;;;;;;;1999.90;999.90;;;5.00;99.90;;;;;;5045319;28;20051;-76
2024/01/06 03:34:01;;;;;;;1999.90;999.90;;;5.00;99.90;;;;;;5060741;28;20033;-77
2024/01/06 03:36:26;;;;;;;1999.90;999.90;;;5.00;99.90;;;;;;5068278;28;20033;-77
2024/01/06 03:38:52;;;;;;;1999.90;999.90;;;5.00;99.90;;;;;;5052463;28;20025;-76
2024/01/06 03:41:18;;;;;;;1999.90;999.90;;;5.00;99.90;;;;;;5052107;28;20025;-77
2024/01/06 03:43:43;;;;;;;1999.90;999.90;;;5.00;99.90;;;;;;5052563;28;20099;-76
2024/01/06 03:46:09;;;;;;;1999.90;999.90;;;4.90;99.90;;;;;;5052258;28;20060;-77
2024/01/06 03:48:35;;;;;;;1999.90;999.90;;;4.90;99.90;;;;;;5045321;28;20108;-77
2024/01/06 03:51:03;;;;;;;1999.90;999.90;;;4.90;99.90;;;;;;5052123;28;20021;-76
2024/01/06 03:53:28;;;;;;;1999.90;999.90;;;4.80;99.90;;;;;;5052156;28;20033;-76
2024/01/06 03:55:54;;;;;;;1999.90;999.90;;;4.80;99.90;;;;;;5051994;28;20091;-76
2024/01/06 03:58:19;;;;;;;1999.90;999.90;;;4.80;99.90;;;;;;5052290;28;20057;-76
2024/01/06 04:00:45;;;;;;;1999.90;999.90;;;4.80;99.90;;;;;;5052441;28;20037;-77
2024/01/06 04:03:11;;;;;;;1999.90;999.90;;;4.80;99.90;;;;;;5052045;28;20029;-76
2024/01/06 04:05:36;;;;;;;1999.90;999.90;;;4.80;99.90;;;;;;5067078;28;20100;-76
2024/01/06 04:08:02;;;;;;;1999.90;999.90;;;4.80;99.90;;;;;;5052225;28;20021;-77
2024/01/06 04:10:27;;;;;;;1999.90;999.90;;;4.80;99.90;;;;;;5051807;28;20036;-77
2024/01/06 04:12:53;;;;;;;1999.90;999.90;;;4.80;99.90;;;;;;5052163;28;20113;-77
2024/01/06 04:15:19;;;;;;;1999.90;999.90;;;4.80;99.90;;;;;;5051999;28;20049;-77
2024/01/06 04:17:48;;;;;;;1999.90;999.90;;;4.80;99.90;;;;;;5052336;28;20108;-77
2024/01/06 04:20:13;;;;;;;1999.90;999.90;;;4.80;99.90;;;;;;5052131;28;20025;-77
2024/01/06 04:22:39;;;;;;;1999.90;999.90;;;4.80;99.90;;;;;;5051921;28;20025;-76
2024/01/06 04:25:05;;;;;;;1999.90;999.90;;;4.80;99.90;;;;;;5051919;28;20029;-77
2024/01/06 04:27:31;;;;;;;1999.90;999.90;;;4.70;99.90;;;;;;5051551;28;20029;-77
2024/01/06 04:29:56;;;;;;;1999.90;999.90;;;4.70;99.90;;;;;;5040686;28;20510;-76
2024/01/06 04:32:22;;;;;;;1999.90;999.90;;;4.70;99.90;;;;;;5051043;28;20476;-77
2024/01/06 04:34:48;;;;;;;1999.90;999.90;;;4.70;99.90;;;;;;5052107;28;20025;-76
2024/01/06 04:37:14;;;;;;;1999.90;999.90;;;4.70;99.90;;;;;;5051683;28;20060;-77
2024/01/06 04:39:40;;;;;;;1999.90;999.90;;;4.60;99.90;;;;;;5051712;28;20420;-76
2024/01/06 04:42:06;;;;;;;1999.90;999.90;;;4.60;99.90;;;;;;5051529;28;20035;-77
2024/01/06 04:44:31;;;;;;;1999.90;999.90;;;4.50;99.90;;;;;;5052145;28;20033;-77
2024/01/06 04:46:57;;;;;;;1999.90;999.90;;;4.50;99.90;;;;;;5051816;28;20031;-76
2024/01/06 04:49:23;;;;;;;1999.90;999.90;;;4.50;99.90;;;;;;5046036;28;20028;-76
2024/01/06 04:51:48;;;;;;;1999.90;999.90;;;4.50;99.90;;;;;;5055242;28;20128;-76
2024/01/06 04:54:14;;;;;;;1999.90;999.90;;;4.50;99.90;;;;;;5055232;28;20040;-76
2024/01/06 04:56:40;;;;;;;1999.90;999.90;;;4.50;99.90;;;;;;5055606;28;20063;-76
2024/01/06 04:59:06;;;;;;;1999.90;999.90;;;4.50;99.90;;;;;;5055222;28;20082;-76
2024/01/06 05:01:32;;;;;;;1999.90;999.90;;;4.50;99.90;;;;;;5055155;28;20060;-76
2024/01/06 05:03:58;;;;;;;1999.90;999.90;;;4.50;99.90;;;;;;5055016;28;20053;-76
2024/01/06 05:06:25;;;;;;;1999.90;999.90;;;4.50;99.90;;;;;;5035064;28;20407;-77
2024/01/06 05:08:50;;;;;;;1999.90;999.90;;;4.60;99.90;;;;;;5045527;28;20056;-77
2024/01/06 05:11:16;;;;;;;1999.90;999.90;;;4.70;99.90;;;;;;5054739;28;20076;-76
2024/01/06 05:13:42;;;;;;;1999.90;999.90;;;4.80;99.90;;;;;;5054992;28;20029;-77
2024/01/06 05:16:08;;;;;;;1999.90;999.90;;;5.00;99.90;;;;;;5054732;28;20424;-76
2024/01/06 05:18:34;;;;;;;1999.90;999.90;;;5.00;99.90;;;;;;5054879;28;20029;-77
2024/01/06 05:21:01;;;;;;;1999.90;999.90;;;5.10;99.90;;;;;;5054734;28;20044;-77
2024/01/06 05:23:26;;;;;;;1999.90;999.90;;;5.20;99.90;;;;;;5054661;28;20036;-77
2024/01/06 05:25:52;;;;;;;1999.90;999.90;;;5.20;99.90;;;;;;5036748;28;20029;-77
2024/01/06 05:28:18;;;;;;;1999.90;999.90;;;5.20;99.90;;;;;;5050452;28;20079;-76
2024/01/06 05:30:43;;;;;;;1999.90;999.90;;;5.30;99.90;;;;;;5046826;28;20060;-76
2024/01/06 05:33:13;;;;;;;1999.90;999.90;;;5.30;99.90;;;;;;5051492;28;20036;-76
2024/01/06 05:35:39;;;;;;;1999.90;999.90;;;5.20;99.90;;;;;;5069814;28;20082;-77
2024/01/06 05:38:05;;;;;;;1999.90;999.90;;;5.10;99.90;;;;;;5057050;28;20435;-77
2024/01/06 05:40:30;;;;;;;1999.90;999.90;;;5.10;99.90;;;;;;5054176;28;20041;-76
2024/01/06 05:42:56;;;;;;;1999.90;999.90;;;5.00;99.90;;;;;;5054425;28;20575;-76
2024/01/06 05:45:22;;;;;;;1999.90;999.90;;;5.10;99.90;;;;;;5054330;28;20025;-77
2024/01/06 05:47:48;;;;;;;1999.90;999.90;;;5.20;99.90;;;;;;5052270;28;20023;-77
2024/01/06 05:50:16;;;;;;;1999.90;999.90;;;5.20;99.90;;;;;;5045416;28;20108;-77
2024/01/06 05:52:42;;;;;;;1999.90;999.90;;;5.20;99.90;;;;;;5054317;28;20044;-76
2024/01/06 05:55:09;;;;;;;1999.90;999.90;;;5.20;99.90;;;;;;5054008;28;20112;-76
2024/01/06 05:57:34;;;;;;;1999.90;999.90;;;5.20;99.90;;;;;;5054521;28;20021;-77
2024/01/06 06:00:00;;;;;;;1999.90;999.90;;;5.20;99.90;;;;;;5053596;28;20155;-77
2024/01/06 06:02:26;;;;;;;1999.90;999.90;;;5.10;99.90;;;;;;5054345;28;20037;-76
2024/01/06 06:04:52;;;;;;;1999.90;999.90;;;5.10;99.90;;;;;;5053991;28;20462;-76
2024/01/06 06:07:18;;;;;;;1999.90;999.90;;;5.10;99.90;;;;;;5053643;28;20044;-77
2024/01/06 06:09:47;;;;;;;1999.90;999.90;;;5.10;99.90;;;;;;5053496;28;20242;-76
2024/01/06 06:12:13;;;;;;;1999.90;999.90;;;5.00;99.90;;;;;;5054007;28;20027;-76
2024/01/06 06:14:38;;;;;;;1999.90;999.90;;;4.90;99.90;;;;;;5053819;28;20048;-76
2024/01/06 06:17:04;;;;;;;1999.90;999.90;;;4.90;99.90;;;;;;5053723;28;20048;-76
2024/01/06 06:19:30;;;;;;;1999.90;999.90;;;4.80;99.90;;;;;;5053614;28;20399;-76
2024/01/06 06:21:56;;;;;;;1999.90;999.90;;;4.80;99.90;;;;;;5053360;28;20056;-76
2024/01/06 06:24:22;;;;;;;1999.90;999.90;;;4.70;99.90;;;;;;5053641;28;20051;-76
2024/01/06 06:26:48;;;;;;;1999.90;999.90;;;4.70;99.90;;;;;;5053511;28;20025;-76
2024/01/06 06:29:13;;;;;;;1999.90;999.90;;;4.60;99.90;;;;;;5045493;28;20030;-76
2024/01/06 06:31:39;;;;;;;1999.90;999.90;;;4.60;99.90;;;;;;5053452;28;20021;-76
2024/01/06 06:34:04;;;;;;;1999.90;999.90;;;4.60;99.90;;;;;;5053230;28;20021;-76
2024/01/06 06:36:30;;;;;;;1999.90;999.90;;;4.50;99.90;;;;;;5053175;28;20040;-76
2024/01/06 06:38:58;;;;;;;1999.90;999.90;;;4.50;99.90;;;;;;5053476;28;20017;-77
2024/01/06 06:41:24;;;;;;;1999.90;999.90;;;4.60;99.90;;;;;;5052876;28;20029;-77
2024/01/06 06:43:50;;;;;;;1999.90;999.90;;;4.50;99.90;;;;;;5053392;28;20017;-77
2024/01/06 06:46:16;;;;;;;1999.90;999.90;;;4.50;99.90;;;;;;5035143;28;20040;-76
2024/01/06 06:48:42;;;;;;;1999.90;999.90;;;4.50;99.90;;;;;;5043964;28;20052;-77
2024/01/06 06:51:07;;;;;;;1999.90;999.90;;;4.50;99.90;;;;;;5048285;28;20040;-76
2024/01/06 06:53:33;;;;;;;1999.90;999.90;;;4.50;99.90;;;;;;5053590;28;20033;-76
2024/01/06 06:55:58;;;;;;;1999.90;999.90;;;4.60;99.90;;;;;;5053004;28;20110;-76
2024/01/06 06:58:24;;;;;;;1999.90;999.90;;;4.70;99.90;;;;;;5053078;28;20029;-77
2024/01/06 07:00:50;;;;;;;1999.90;999.90;;;4.70;99.90;;;;;;5052851;28;20029;-77
2024/01/06 07:03:15;;;;;;;1999.90;999.90;;;4.80;99.90;;;;;;5052988;28;20099;-77
2024/01/06 07:05:41;;;;;;;1999.90;999.90;;;4.80;99.90;;;;;;5051958;28;20570;-76
2024/01/06 07:08:07;;;;;;;1999.90;999.90;;;4.80;99.90;;;;;;5048668;28;20049;-77
2024/01/06 07:10:32;;;;;;;1999.90;999.90;;;4.90;99.90;;;;;;5047627;28;20029;-77
2024/01/06 07:12:58;;;;;;;1999.90;999.90;;;4.90;99.90;;;;;;5052893;28;20108;-76
2024/01/06 07:15:24;;;;;;;1999.90;999.90;;;5.00;99.90;;;;;;5052658;28;20503;-77
2024/01/06 07:17:49;;;;;;;1999.90;999.90;;;5.00;99.90;;;;;;5053076;28;20036;-77
2024/01/06 07:20:15;;;;;;;1999.90;999.90;;;5.10;99.90;;;;;;5052742;28;20036;-76
2024/01/06 07:22:41;;;;;;;1999.90;999.90;;;5.10;99.90;;;;;;5052462;28;20059;-77
2024/01/06 07:25:07;;;;;;;1999.90;999.90;;;5.10;99.90;;;;;;5052683;28;20475;-76
2024/01/06 07:27:33;;;;;;;1999.90;999.90;;;5.20;99.90;;;;;;5034693;28;20450;-77
2024/01/06 07:29:58;;;;;;;1999.90;999.90;;;5.20;99.90;;;;;;5044629;28;20029;-77
2024/01/06 07:32:24;;;;;;;1999.90;999.90;;;5.30;99.90;;;;;;5052281;28;20404;-76
2024/01/06 07:34:50;;;;;;;1999.90;999.90;;;5.40;99.90;;;;;;5054452;28;20112;-77
2024/01/06 07:37:16;;;;;;;1999.90;999.90;;;5.40;99.90;;;;;;5061928;28;20491;-76
2024/01/06 07:39:41;;;;;;;1999.90;999.90;;;5.50;99.90;;;;;;5052253;28;20025;-77
2024/01/06 07:42:07;;;;;;;1999.90;999.90;;;5.50;99.90;;;;;;5052291;28;20031;-76
2024/01/06 07:44:33;;;;;;;1999.90;999.90;;;5.50;99.90;;;;;;5052534;28;20403;-77
2024/01/06 07:46:59;;;;;;;1999.90;999.90;;;5.50;99.90;;;;;;5052306;28;20142;-77
2024/01/06 07:49:24;;;;;;;1999.90;999.90;;;5.60;99.90;;;;;;5038570;28;20029;-76
2024/01/06 07:51:50;;;;;;;1999.90;999.90;;;5.60;99.90;;;;;;5024235;28;20029;-77
2024/01/06 07:54:16;;;;;;;1999.90;999.90;;;5.60;99.90;;;;;;5041015;28;20036;-77
2024/01/06 07:56:43;;;;;;;1999.90;999.90;;;5.60;99.90;;;;;;5048433;28;20029;-77
2024/01/06 07:59:10;;;;;;;1999.90;999.90;;;5.70;99.90;;;;;;5052465;28;20029;-77
2024/01/06 08:01:35;;;;;;;1999.90;999.90;;;5.60;99.90;;;;;;5052196;28;20033;-77
2024/01/06 08:04:01;;;;;;;1999.90;999.90;;;5.60;99.90;;;;;;5052175;28;20033;-77
2024/01/06 08:06:27;;;;;;;1999.90;999.90;;;5.60;99.90;;;;;;5052187;28;20112;-76
2024/01/06 08:08:52;;;;;;;1999.90;999.90;;;5.60;99.90;;;;;;5052365;28;20060;-76
2024/01/06 08:11:18;;;;;;;1999.90;999.90;;;5.50;99.90;;;;;;5051788;28;20368;-76
2024/01/06 08:13:44;;;;;;;1999.90;999.90;;;5.60;99.90;;;;;;5052227;28;20036;-76
2024/01/06 08:16:09;;;;;;;1999.90;999.90;;;5.60;99.90;;;;;;5052089;28;20053;-76
2024/01/06 08:18:35;;;;;;;1999.90;999.90;;;5.60;99.90;;;;;;5052271;28;20032;-76
2024/01/06 08:21:00;;;;;;;1999.90;999.90;;;5.50;99.90;;;;;;5052098;28;20037;-76
2024/01/06 08:23:26;;;;;;;1999.90;999.90;;;5.50;99.90;;;;;;5055685;28;20025;-76
2024/01/06 08:25:52;;;;;;;1999.90;999.90;;;5.50;99.90;;;;;;5055681;28;20029;-77
2024/01/06 08:28:18;;;;;;;1999.90;999.90;;;5.50;99.90;;;;;;5052430;28;20025;-76
2024/01/06 08:30:44;;;;;;;1999.90;999.90;;;5.50;99.90;;;;;;5051546;28;20159;-76
2024/01/06 08:33:10;;;;;;;1999.90;999.90;;;5.50;99.90;;;;;;5037713;28;20438;-77
2024/01/06 08:35:40;;;;;;;1999.90;999.90;;;5.50;99.90;;;;;;5055538;28;20029;-77
2024/01/06 08:38:07;;;;;;;1999.90;999.90;;;5.50;99.90;;;;;;5055437;28;20021;-76
2024/01/06 08:40:33;;;;;;;1999.90;999.90;;;5.50;99.90;;;;;;5055326;28;20060;-76
2024/01/06 08:42:58;;;;;;;1999.90;999.90;;;5.50;99.90;;;;;;5055525;28;20028;-77
2024/01/06 08:45:24;;;;;;;1999.90;999.90;;;5.60;99.90;;;;;;5055606;28;20029;-77
2024/01/06 08:47:49;;;;;;;1999.90;999.90;;;5.70;99.90;;;;;;5055439;28;20040;-76
2024/01/06 08:50:15;;;;;;;1999.90;999.90;;;5.80;99.90;;;;;;5054650;28;20403;-76
2024/01/06 08:52:41;;;;;;;1999.90;999.90;;;5.90;99.90;;;;;;5055396;28;20064;-77
2024/01/06 08:55:07;;;;;;;1999.90;999.90;;;6.00;99.90;;;;;;5055626;28;20029;-77
2024/01/06 08:57:32;;;;;;;1999.90;999.90;;;6.00;99.90;;;;;;5055270;28;20029;-77
2024/01/06 08:59:58;;;;;;;1999.90;999.90;;;6.20;99.90;;;;;;5054957;28;20021;-77
2024/01/06 09:02:24;;;;;;;1999.90;999.90;;;6.20;99.90;;;;;;5055216;28;20037;-76
2024/01/06 09:04:49;;;;;;;1999.90;999.90;;;6.20;99.90;;;;;;5055305;28;20078;-77
2024/01/06 09:07:17;;;;;;;1999.90;999.90;;;6.40;99.90;;;;;;5054296;28;20528;-77
2024/01/06 09:09:42;;;;;;;1999.90;999.90;;;6.50;99.90;;;;;;5054770;28;20021;-77
2024/01/06 09:12:08;;;;;;;1999.90;999.90;;;6.60;99.90;;;;;;5054850;28;20377;-77
2024/01/06 09:14:34;;;;;;;1999.90;999.90;;;6.70;99.90;;;;;;5055052;28;20040;-77
2024/01/06 09:16:59;;;;;;;1999.90;999.90;;;6.90;99.90;;;;;;5055029;28;20499;-77
2024/01/06 09:19:28;;;;;;;1999.90;999.90;;;7.00;99.90;;;;;;5036994;28;20033;-77
2024/01/06 09:21:54;;;;;;;1999.90;999.90;;;7.10;99.90;;;;;;5054731;28;20025;-76
2024/01/06 09:24:20;;;;;;;1999.90;999.90;;;7.10;99.90;;;;;;5054711;28;20495;-77
2024/01/06 09:26:46;;;;;;;1999.90;999.90;;;7.00;99.90;;;;;;5065950;28;20021;-76
2024/01/06 09:29:12;;;;;;;1999.90;999.90;;;7.00;99.90;;;;;;5054143;28;20030;-77
2024/01/06 09:31:38;;;;;;;1999.90;999.90;;;7.00;99.90;;;;;;5052744;28;20531;-77
2024/01/06 09:34:03;;;;;;;1999.90;999.90;;;6.90;99.90;;;;;;5053966;28;20107;-76
2024/01/06 09:36:31;;;;;;;1999.90;999.90;;;6.90;99.90;;;;;;5059011;28;20403;-77
2024/01/06 09:38:56;;;;;;;1999.90;999.90;;;7.00;99.90;;;;;;5054516;28;20075;-77
2024/01/06 09:41:23;;;;;;;1999.90;999.90;;;7.00;99.90;;;;;;5054195;28;20017;-77
2024/01/06 09:43:48;;;;;;;1999.90;999.90;;;7.00;99.90;;;;;;5054356;28;20025;-76
2024/01/06 09:46:21;;;;;;;1999.90;999.90;;;6.90;99.90;;;;;;5054420;28;20036;-77
2024/01/06 09:48:51;;;;;;;1999.90;999.90;;;7.00;99.90;;;;;;5048515;28;20029;-77
2024/01/06 09:51:18;;;;;;;1999.90;999.90;;;7.00;99.90;;;;;;5040452;28;20021;-77
2024/01/06 09:53:59;;;;;;;1999.90;999.90;;;7.10;99.90;;;;;;5054272;28;20055;-77
2024/01/06 09:56:27;;;;;;;1999.90;999.90;;;7.20;99.90;;;;;;5053704;28;20404;-76
2024/01/06 09:58:53;;;;;;;1999.90;999.90;;;7.30;99.90;;;;;;5054303;28;20029;-77
2024/01/06 10:01:19;;;;;;;1999.90;999.90;;;7.30;99.90;;;;;;5053994;28;20064;-77
2024/01/06 10:03:45;;;;;;;1999.90;999.90;;;7.50;99.90;;;;;;5053957;28;20083;-77
2024/01/06 10:06:11;;;;;;;1999.90;999.90;;;7.60;99.90;;;;;;5054014;28;20399;-77
2024/01/06 10:08:40;;;;;;;1999.90;999.90;;;7.60;99.90;;;;;;5053783;28;20579;-77
2024/01/06 10:11:08;;;;;;;1999.90;999.90;;;7.60;99.90;;;;;;5053667;28;20048;-77
2024/01/06 10:13:33;;;;;;;1999.90;999.90;;;7.60;99.90;;;;;;5053802;28;20411;-77
2024/01/06 10:15:59;;;;;;;1999.90;999.90;;;7.60;99.90;;;;;;5053558;28;20049;-77
2024/01/06 10:18:27;;;;;;;1999.90;999.90;;;7.70;99.90;;;;;;5053849;28;20036;-77
2024/01/06 10:20:53;;;;;;;1999.90;999.90;;;7.70;99.90;;;;;;5054036;28;20029;-77
2024/01/06 10:23:19;;;;;;;1999.90;999.90;;;7.70;99.90;;;;;;5053128;28;20446;-77
2024/01/06 10:25:44;;;;;;;1999.90;999.90;;;7.80;99.90;;;;;;5053522;28;20107;-77
2024/01/06 10:28:13;;;;;;;1999.90;999.90;;;7.90;99.90;;;;;;5066590;28;20021;-76
2024/01/06 10:30:39;;;;;;;1999.90;999.90;;;7.80;99.90;;;;;;5044335;28;20032;-77
2024/01/06 10:33:13;;;;;;;1999.90;999.90;;;8.00;99.90;;;;;;5052435;28;20017;-76
2024/01/06 10:35:39;;;;;;;1999.90;999.90;;;8.00;99.90;;;;;;5053597;28;20434;-77
2024/01/06 10:38:06;;;;;;;1999.90;999.90;;;8.00;99.90;;;;;;5052843;28;20033;-77
2024/01/06 10:40:32;;;;;;;1999.90;999.90;;;8.20;99.90;;;;;;5053166;28;20483;-76
2024/01/06 10:42:58;;;;;;;1999.90;999.90;;;8.50;99.90;;;;;;5053083;28;20028;-77
2024/01/06 10:45:24;;;;;;;1999.90;999.90;;;8.80;99.90;;;;;;5052425;28;20032;-77
2024/01/06 10:47:50;;;;;;;1999.90;999.90;;;9.00;99.90;;;;;;5068857;28;20024;-77
2024/01/06 10:50:21;;;;;;;1999.90;999.90;;;9.10;99.90;;;;;;5039902;28;20116;-77
2024/01/06 10:52:48;;;;;;;1999.90;999.90;;;9.20;99.90;;;;;;5048397;28;20108;-76
2024/01/06 10:55:20;;;;;;;1999.90;999.90;;;9.60;99.90;;;;;;5053144;28;20500;-77
2024/01/06 10:57:47;;;;;;;1999.90;999.90;;;9.80;99.90;;;;;;5067440;28;20070;-77
2024/01/06 11:00:13;;;;;;;1999.90;999.90;;;9.70;99.90;;;;;;5072879;28;20267;-77
2024/01/06 11:02:42;;;;;;;1999.90;999.90;;;9.60;99.90;;;;;;5054659;28;20035;-78
2024/01/06 11:05:10;;;;;;;1999.90;999.90;;;9.60;99.90;;;;;;5071773;28;20032;-77
2024/01/06 11:07:37;;;;;;;1999.90;999.90;;;9.60;99.90;;;;;;5053019;28;20110;-77
2024/01/06 11:10:08;;;;;;;1999.90;999.90;;;9.70;99.90;;;;;;5052478;28;20021;-76
2024/01/06 11:12:34;;;;;;;1999.90;999.90;;;9.40;99.90;;;;;;5051503;28;20403;-77
2024/01/06 11:14:59;;;;;;;1999.90;999.90;;;9.40;99.90;;;;;;5052565;28;20040;-77
2024/01/06 11:17:53;;;;;;;1999.90;999.90;;;9.30;99.90;;;;;;5034886;28;20045;-77
2024/01/06 11:20:20;;;;;;;1999.90;999.90;;;9.20;99.90;;;;;;5053111;28;20507;-76
2024/01/06 11:22:45;;;;;;;1999.90;999.90;;;9.10;99.90;;;;;;5052676;28;20032;-77
2024/01/06 11:25:16;;;;;;;1999.90;999.90;;;9.30;99.90;;;;;;5052369;28;20017;-77
2024/01/06 11:27:45;;;;;;;1999.90;999.90;;;9.40;99.90;;;;;;5065012;28;20155;-77
2024/01/06 11:30:23;;;;;;;1999.90;999.90;;;9.40;99.90;;;;;;5047323;28;20017;-77
2024/01/06 11:32:52;;;;;;;1999.90;999.90;;;9.50;99.90;;;;;;5046701;28;20377;-77
2024/01/06 11:35:18;;;;;;;1999.90;999.90;;;9.50;99.90;;;;;;5052500;28;20024;-77
2024/01/06 11:37:43;;;;;;;1999.90;999.90;;;9.50;99.90;;;;;;5052379;28;20418;-77
2024/01/06 11:40:13;;;;;;;1999.90;999.90;;;9.40;99.90;;;;;;5051966;28;20032;-77
2024/01/06 11:42:41;;;;;;;1999.90;999.90;;;9.50;99.90;;;;;;5052449;28;20120;-76
2024/01/06 11:45:07;;;;;;;1999.90;999.90;;;9.70;99.90;;;;;;5052517;28;20021;-77
2024/01/06 11:47:36;;;;;;;1999.90;999.90;;;9.80;99.90;;;;;;5052429;28;20033;-77
2024/01/06 11:50:04;;;;;;;1999.90;999.90;;;9.80;99.90;;;;;;5038939;28;20025;-77
2024/01/06 11:52:31;;;;;;;1999.90;999.90;;;9.90;99.90;;;;;;5041969;28;20108;-77
2024/01/06 11:54:57;;;;;;;1999.90;999.90;;;9.90;99.90;;;;;;5052097;28;20033;-77
2024/01/06 11:57:23;;;;;;;1999.90;999.90;;;10.00;99.90;;;;;;5044169;28;20462;-77
2024/01/06 11:59:49;;;;;;;1999.90;999.90;;;10.20;99.90;;;;;;5076337;28;20092;-77
2024/01/06 12:02:18;;;;;;;1999.90;999.90;;;10.30;99.90;;;;;;5076060;28;20028;-76
2024/01/06 12:04:51;;;;;;;1999.90;999.90;;;10.40;99.90;;;;;;5076266;28;20013;-77